sensor_id;sensor_type;location;lat;lon;timestamp;P1;durP1;ratioP1;P2;durP2;ratioP2
16837;SDS011;19510;54.486;9.046;2023-11-21T00:01:17;7.97;;;5.20;;
16837;SDS011;19510;54.486;9.046;2023-11-21T00:03:43;7.78;;;5.25;;
16837;SDS011;19510;54.486;9.046;2023-11-21T00:06:09;9.65;;;5.15;;
16837;SDS011;19510;54.486;9.046;2023-11-21T00:08:35;10.02;;;5.70;;
16837;SDS011;19510;54.486;9.046;2023-11-21T00:11:01;8.10;;;5.05;;
16837;SDS011;19510;54.486;9.046;2023-11-21T00:13:27;7.82;;;5.15;;
16837;SDS011;19510;54.486;9.046;2023-11-21T00:15:53;7.53;;;4.90;;
16837;SDS011;19510;54.486;9.046;2023-11-21T00:18:20;10.60;;;5.53;;
16837;SDS011;19510;54.486;9.046;2023-11-21T00:20:46;9.88;;;5.20;;
16837;SDS011;19510;54.486;9.046;2023-11-21T00:23:11;8.52;;;5.32;;
16837;SDS011;19510;54.486;9.046;2023-11-21T00:25:37;8.32;;;5.35;;
16837;SDS011;19510;54.486;9.046;2023-11-21T00:28:03;8.10;;;5.32;;
16837;SDS011;19510;54.486;9.046;2023-11-21T00:30:29;9.65;;;5.32;;
16837;SDS011;19510;54.486;9.046;2023-11-21T00:32:56;14.13;;;5.57;;
16837;SDS011;19510;54.486;9.046;2023-11-21T00:35:21;12.23;;;6.45;;
16837;SDS011;19510;54.486;9.046;2023-11-21T00:37:47;9.18;;;5.22;;
16837;SDS011;19510;54.486;9.046;2023-11-21T00:40:14;9.20;;;5.47;;
16837;SDS011;19510;54.486;9.046;2023-11-21T00:42:41;10.05;;;5.60;;
16837;SDS011;19510;54.486;9.046;2023-11-21T00:45:07;15.60;;;5.95;;
16837;SDS011;19510;54.486;9.046;2023-11-21T00:47:33;9.10;;;5.38;;
16837;SDS011;19510;54.486;9.046;2023-11-21T00:49:59;9.57;;;5.63;;
16837;SDS011;19510;54.486;9.046;2023-11-21T00:52:24;8.15;;;5.47;;
16837;SDS011;19510;54.486;9.046;2023-11-21T00:54:51;9.57;;;6.43;;
16837;SDS011;19510;54.486;9.046;2023-11-21T00:57:16;9.85;;;5.75;;
16837;SDS011;19510;54.486;9.046;2023-11-21T00:59:42;10.60;;;5.57;;
16837;SDS011;19510;54.486;9.046;2023-11-21T01:02:07;13.20;;;6.18;;
16837;SDS011;19510;54.486;9.046;2023-11-21T01:04:35;11.73;;;5.95;;
16837;SDS011;19510;54.486;9.046;2023-11-21T01:07:01;10.63;;;6.32;;
16837;SDS011;19510;54.486;9.046;2023-11-21T01:09:26;11.70;;;5.63;;
16837;SDS011;19510;54.486;9.046;2023-11-21T01:11:53;10.85;;;5.90;;
16837;SDS011;19510;54.486;9.046;2023-11-21T01:14:18;12.77;;;6.10;;
16837;SDS011;19510;54.486;9.046;2023-11-21T01:16:44;10.98;;;6.25;;
16837;SDS011;19510;54.486;9.046;2023-11-21T01:19:10;10.68;;;5.97;;
16837;SDS011;19510;54.486;9.046;2023-11-21T01:21:36;11.63;;;6.65;;
16837;SDS011;19510;54.486;9.046;2023-11-21T01:24:02;12.55;;;6.20;;
16837;SDS011;19510;54.486;9.046;2023-11-21T01:26:28;12.73;;;6.15;;
16837;SDS011;19510;54.486;9.046;2023-11-21T01:28:54;11.05;;;6.60;;
16837;SDS011;19510;54.486;9.046;2023-11-21T01:31:19;10.27;;;6.03;;
16837;SDS011;19510;54.486;9.046;2023-11-21T01:33:45;11.02;;;6.53;;
16837;SDS011;19510;54.486;9.046;2023-11-21T01:36:11;10.50;;;6.68;;
16837;SDS011;19510;54.486;9.046;2023-11-21T01:38:37;9.80;;;6.07;;
16837;SDS011;19510;54.486;9.046;2023-11-21T01:41:03;10.35;;;6.40;;
16837;SDS011;19510;54.486;9.046;2023-11-21T01:43:29;12.80;;;6.53;;
16837;SDS011;19510;54.486;9.046;2023-11-21T01:45:56;10.32;;;6.85;;
16837;SDS011;19510;54.486;9.046;2023-11-21T01:48:23;11.32;;;6.10;;
16837;SDS011;19510;54.486;9.046;2023-11-21T01:50:50;9.43;;;6.28;;
16837;SDS011;19510;54.486;9.046;2023-11-21T01:53:16;10.77;;;6.75;;
16837;SDS011;19510;54.486;9.046;2023-11-21T01:55:41;12.98;;;6.80;;
16837;SDS011;19510;54.486;9.046;2023-11-21T01:58:08;10.25;;;6.35;;
16837;SDS011;19510;54.486;9.046;2023-11-21T02:00:36;10.52;;;5.55;;
16837;SDS011;19510;54.486;9.046;2023-11-21T02:03:03;12.32;;;6.38;;
16837;SDS011;19510;54.486;9.046;2023-11-21T02:05:29;14.50;;;7.22;;
16837;SDS011;19510;54.486;9.046;2023-11-21T02:07:55;11.27;;;5.90;;
16837;SDS011;19510;54.486;9.046;2023-11-21T02:10:21;11.68;;;6.65;;
16837;SDS011;19510;54.486;9.046;2023-11-21T02:12:50;10.63;;;5.97;;
16837;SDS011;19510;54.486;9.046;2023-11-21T02:15:16;11.18;;;6.53;;
16837;SDS011;19510;54.486;9.046;2023-11-21T02:17:47;10.48;;;6.53;;
16837;SDS011;19510;54.486;9.046;2023-11-21T02:20:19;13.32;;;7.15;;
16837;SDS011;19510;54.486;9.046;2023-11-21T02:25:20;13.63;;;7.25;;
16837;SDS011;19510;54.486;9.046;2023-11-21T02:27:47;11.88;;;6.53;;
16837;SDS011;19510;54.486;9.046;2023-11-21T02:30:14;12.55;;;6.88;;
16837;SDS011;19510;54.486;9.046;2023-11-21T02:32:41;13.60;;;7.25;;
16837;SDS011;19510;54.486;9.046;2023-11-21T02:35:08;10.52;;;7.13;;
16837;SDS011;19510;54.486;9.046;2023-11-21T02:37:34;12.43;;;6.53;;
16837;SDS011;19510;54.486;9.046;2023-11-21T02:40:00;12.60;;;7.53;;
16837;SDS011;19510;54.486;9.046;2023-11-21T02:42:29;16.23;;;7.53;;
16837;SDS011;19510;54.486;9.046;2023-11-21T02:44:55;15.20;;;7.55;;
16837;SDS011;19510;54.486;9.046;2023-11-21T02:47:21;14.05;;;7.03;;
16837;SDS011;19510;54.486;9.046;2023-11-21T02:49:48;14.23;;;6.80;;
16837;SDS011;19510;54.486;9.046;2023-11-21T02:52:14;11.32;;;7.22;;
16837;SDS011;19510;54.486;9.046;2023-11-21T02:54:39;12.25;;;7.20;;
16837;SDS011;19510;54.486;9.046;2023-11-21T02:57:05;11.95;;;6.93;;
16837;SDS011;19510;54.486;9.046;2023-11-21T02:59:31;14.05;;;6.97;;
16837;SDS011;19510;54.486;9.046;2023-11-21T03:01:56;11.13;;;7.28;;
16837;SDS011;19510;54.486;9.046;2023-11-21T03:04:22;14.00;;;6.78;;
16837;SDS011;19510;54.486;9.046;2023-11-21T03:06:48;9.55;;;6.32;;
16837;SDS011;19510;54.486;9.046;2023-11-21T03:09:13;10.85;;;6.57;;
16837;SDS011;19510;54.486;9.046;2023-11-21T03:11:39;13.90;;;7.25;;
16837;SDS011;19510;54.486;9.046;2023-11-21T03:14:05;9.57;;;6.20;;
16837;SDS011;19510;54.486;9.046;2023-11-21T03:16:31;9.32;;;5.15;;
16837;SDS011;19510;54.486;9.046;2023-11-21T03:18:57;10.13;;;5.68;;
16837;SDS011;19510;54.486;9.046;2023-11-21T03:21:23;10.27;;;5.78;;
16837;SDS011;19510;54.486;9.046;2023-11-21T03:23:50;12.02;;;5.40;;
16837;SDS011;19510;54.486;9.046;2023-11-21T03:26:17;10.95;;;5.50;;
16837;SDS011;19510;54.486;9.046;2023-11-21T03:28:43;8.80;;;5.15;;
16837;SDS011;19510;54.486;9.046;2023-11-21T03:31:09;9.07;;;5.28;;
16837;SDS011;19510;54.486;9.046;2023-11-21T03:33:35;10.10;;;5.32;;
16837;SDS011;19510;54.486;9.046;2023-11-21T03:36:00;7.53;;;4.60;;
16837;SDS011;19510;54.486;9.046;2023-11-21T03:38:26;11.55;;;4.95;;
16837;SDS011;19510;54.486;9.046;2023-11-21T03:40:52;10.45;;;5.07;;
16837;SDS011;19510;54.486;9.046;2023-11-21T03:43:18;7.85;;;4.68;;
16837;SDS011;19510;54.486;9.046;2023-11-21T03:45:44;7.50;;;4.43;;
16837;SDS011;19510;54.486;9.046;2023-11-21T03:48:09;9.85;;;5.18;;
16837;SDS011;19510;54.486;9.046;2023-11-21T03:50:37;8.70;;;4.43;;
16837;SDS011;19510;54.486;9.046;2023-11-21T03:53:03;7.13;;;4.45;;
16837;SDS011;19510;54.486;9.046;2023-11-21T03:55:29;10.52;;;5.18;;
16837;SDS011;19510;54.486;9.046;2023-11-21T03:57:56;15.18;;;4.93;;
16837;SDS011;19510;54.486;9.046;2023-11-21T04:00:22;8.05;;;4.85;;
16837;SDS011;19510;54.486;9.046;2023-11-21T04:02:48;8.10;;;4.40;;
16837;SDS011;19510;54.486;9.046;2023-11-21T04:05:16;8.30;;;4.57;;
16837;SDS011;19510;54.486;9.046;2023-11-21T04:07:42;9.30;;;4.88;;
16837;SDS011;19510;54.486;9.046;2023-11-21T04:10:08;7.10;;;4.22;;
16837;SDS011;19510;54.486;9.046;2023-11-21T04:12:37;6.97;;;3.80;;
16837;SDS011;19510;54.486;9.046;2023-11-21T04:15:03;6.72;;;4.03;;
16837;SDS011;19510;54.486;9.046;2023-11-21T04:17:29;5.60;;;3.90;;
16837;SDS011;19510;54.486;9.046;2023-11-21T04:19:55;6.00;;;4.35;;
16837;SDS011;19510;54.486;9.046;2023-11-21T04:22:21;7.45;;;4.03;;
16837;SDS011;19510;54.486;9.046;2023-11-21T04:24:47;7.18;;;4.18;;
16837;SDS011;19510;54.486;9.046;2023-11-21T04:27:14;5.95;;;4.15;;
16837;SDS011;19510;54.486;9.046;2023-11-21T04:29:39;6.72;;;4.15;;
16837;SDS011;19510;54.486;9.046;2023-11-21T04:32:06;9.30;;;4.55;;
16837;SDS011;19510;54.486;9.046;2023-11-21T04:34:32;8.05;;;4.78;;
16837;SDS011;19510;54.486;9.046;2023-11-21T04:36:59;5.72;;;3.88;;
16837;SDS011;19510;54.486;9.046;2023-11-21T04:39:25;11.82;;;4.60;;
16837;SDS011;19510;54.486;9.046;2023-11-21T04:41:51;6.53;;;3.92;;
16837;SDS011;19510;54.486;9.046;2023-11-21T04:44:17;7.45;;;4.50;;
16837;SDS011;19510;54.486;9.046;2023-11-21T04:46:43;7.40;;;4.35;;
16837;SDS011;19510;54.486;9.046;2023-11-21T04:49:09;9.10;;;4.03;;
16837;SDS011;19510;54.486;9.046;2023-11-21T04:51:35;9.10;;;3.65;;
16837;SDS011;19510;54.486;9.046;2023-11-21T04:54:01;8.63;;;3.83;;
16837;SDS011;19510;54.486;9.046;2023-11-21T04:56:27;6.68;;;3.95;;
16837;SDS011;19510;54.486;9.046;2023-11-21T04:58:53;7.50;;;3.90;;
16837;SDS011;19510;54.486;9.046;2023-11-21T05:01:19;7.28;;;4.40;;
16837;SDS011;19510;54.486;9.046;2023-11-21T05:03:45;6.43;;;3.90;;
16837;SDS011;19510;54.486;9.046;2023-11-21T05:06:12;6.57;;;3.47;;
16837;SDS011;19510;54.486;9.046;2023-11-21T05:08:39;7.28;;;3.95;;
16837;SDS011;19510;54.486;9.046;2023-11-21T05:11:04;6.97;;;3.50;;
16837;SDS011;19510;54.486;9.046;2023-11-21T05:13:35;5.38;;;3.38;;
16837;SDS011;19510;54.486;9.046;2023-11-21T05:16:01;7.40;;;3.95;;
16837;SDS011;19510;54.486;9.046;2023-11-21T05:18:31;5.22;;;3.20;;
16837;SDS011;19510;54.486;9.046;2023-11-21T05:21:00;4.95;;;3.28;;
16837;SDS011;19510;54.486;9.046;2023-11-21T05:23:26;7.68;;;3.65;;
16837;SDS011;19510;54.486;9.046;2023-11-21T05:25:51;4.97;;;3.10;;
16837;SDS011;19510;54.486;9.046;2023-11-21T05:28:17;5.40;;;3.25;;
16837;SDS011;19510;54.486;9.046;2023-11-21T05:30:42;6.57;;;3.28;;
16837;SDS011;19510;54.486;9.046;2023-11-21T05:33:09;5.25;;;2.95;;
16837;SDS011;19510;54.486;9.046;2023-11-21T05:35:34;6.22;;;3.03;;
16837;SDS011;19510;54.486;9.046;2023-11-21T05:38:00;5.93;;;3.22;;
16837;SDS011;19510;54.486;9.046;2023-11-21T05:40:26;6.88;;;3.08;;
16837;SDS011;19510;54.486;9.046;2023-11-21T05:42:54;4.70;;;2.92;;
16837;SDS011;19510;54.486;9.046;2023-11-21T05:45:21;3.83;;;2.75;;
16837;SDS011;19510;54.486;9.046;2023-11-21T05:47:46;4.47;;;3.10;;
16837;SDS011;19510;54.486;9.046;2023-11-21T05:50:14;4.97;;;3.50;;
16837;SDS011;19510;54.486;9.046;2023-11-21T05:52:41;6.05;;;3.05;;
16837;SDS011;19510;54.486;9.046;2023-11-21T05:55:09;4.85;;;2.85;;
16837;SDS011;19510;54.486;9.046;2023-11-21T05:57:35;5.15;;;2.97;;
16837;SDS011;19510;54.486;9.046;2023-11-21T06:00:03;5.28;;;2.78;;
16837;SDS011;19510;54.486;9.046;2023-11-21T06:02:36;5.93;;;3.00;;
16837;SDS011;19510;54.486;9.046;2023-11-21T06:05:02;4.72;;;2.83;;
16837;SDS011;19510;54.486;9.046;2023-11-21T06:07:29;4.78;;;2.95;;
16837;SDS011;19510;54.486;9.046;2023-11-21T06:09:55;4.22;;;2.72;;
16837;SDS011;19510;54.486;9.046;2023-11-21T06:12:20;3.95;;;2.50;;
16837;SDS011;19510;54.486;9.046;2023-11-21T06:14:46;5.13;;;2.75;;
16837;SDS011;19510;54.486;9.046;2023-11-21T06:17:13;5.95;;;2.78;;
16837;SDS011;19510;54.486;9.046;2023-11-21T06:19:39;10.15;;;5.88;;
16837;SDS011;19510;54.486;9.046;2023-11-21T06:22:05;3.95;;;2.60;;
16837;SDS011;19510;54.486;9.046;2023-11-21T06:24:31;6.47;;;2.83;;
16837;SDS011;19510;54.486;9.046;2023-11-21T06:26:56;5.22;;;2.83;;
16837;SDS011;19510;54.486;9.046;2023-11-21T06:29:22;3.53;;;2.55;;
16837;SDS011;19510;54.486;9.046;2023-11-21T06:31:48;7.55;;;2.97;;
16837;SDS011;19510;54.486;9.046;2023-11-21T06:34:14;4.80;;;2.70;;
16837;SDS011;19510;54.486;9.046;2023-11-21T06:36:40;5.22;;;2.78;;
16837;SDS011;19510;54.486;9.046;2023-11-21T06:39:06;6.20;;;2.97;;
16837;SDS011;19510;54.486;9.046;2023-11-21T06:41:33;4.57;;;3.00;;
16837;SDS011;19510;54.486;9.046;2023-11-21T06:43:59;5.80;;;2.53;;
16837;SDS011;19510;54.486;9.046;2023-11-21T06:46:25;8.15;;;3.15;;
16837;SDS011;19510;54.486;9.046;2023-11-21T06:48:50;7.28;;;3.67;;
16837;SDS011;19510;54.486;9.046;2023-11-21T06:51:16;4.22;;;3.10;;
16837;SDS011;19510;54.486;9.046;2023-11-21T06:53:42;4.03;;;3.08;;
16837;SDS011;19510;54.486;9.046;2023-11-21T06:56:17;5.95;;;3.28;;
16837;SDS011;19510;54.486;9.046;2023-11-21T06:58:44;4.57;;;2.95;;
16837;SDS011;19510;54.486;9.046;2023-11-21T07:01:11;8.75;;;4.45;;
16837;SDS011;19510;54.486;9.046;2023-11-21T07:03:38;5.80;;;3.08;;
16837;SDS011;19510;54.486;9.046;2023-11-21T07:06:04;6.32;;;2.95;;
16837;SDS011;19510;54.486;9.046;2023-11-21T07:08:30;4.18;;;2.65;;
16837;SDS011;19510;54.486;9.046;2023-11-21T07:10:56;4.60;;;2.60;;
16837;SDS011;19510;54.486;9.046;2023-11-21T07:13:22;4.13;;;2.70;;
16837;SDS011;19510;54.486;9.046;2023-11-21T07:15:48;4.40;;;2.78;;
16837;SDS011;19510;54.486;9.046;2023-11-21T07:18:14;4.78;;;3.15;;
16837;SDS011;19510;54.486;9.046;2023-11-21T07:20:39;6.72;;;3.28;;
16837;SDS011;19510;54.486;9.046;2023-11-21T07:23:05;5.65;;;2.92;;
16837;SDS011;19510;54.486;9.046;2023-11-21T07:25:31;4.53;;;2.40;;
16837;SDS011;19510;54.486;9.046;2023-11-21T07:27:58;7.10;;;3.30;;
16837;SDS011;19510;54.486;9.046;2023-11-21T07:30:25;4.00;;;2.65;;
16837;SDS011;19510;54.486;9.046;2023-11-21T07:32:51;4.57;;;2.97;;
16837;SDS011;19510;54.486;9.046;2023-11-21T07:35:17;4.78;;;2.78;;
16837;SDS011;19510;54.486;9.046;2023-11-21T07:37:42;5.00;;;2.50;;
16837;SDS011;19510;54.486;9.046;2023-11-21T07:40:08;4.15;;;2.78;;
16837;SDS011;19510;54.486;9.046;2023-11-21T07:42:36;4.82;;;3.35;;
16837;SDS011;19510;54.486;9.046;2023-11-21T07:45:02;5.32;;;3.10;;
16837;SDS011;19510;54.486;9.046;2023-11-21T07:47:29;5.70;;;2.67;;
16837;SDS011;19510;54.486;9.046;2023-11-21T07:49:55;7.13;;;4.25;;
16837;SDS011;19510;54.486;9.046;2023-11-21T07:52:23;7.00;;;3.58;;
16837;SDS011;19510;54.486;9.046;2023-11-21T07:54:49;7.03;;;3.20;;
16837;SDS011;19510;54.486;9.046;2023-11-21T07:57:15;6.38;;;3.30;;
16837;SDS011;19510;54.486;9.046;2023-11-21T07:59:41;8.18;;;3.72;;
16837;SDS011;19510;54.486;9.046;2023-11-21T08:02:07;7.45;;;3.03;;
16837;SDS011;19510;54.486;9.046;2023-11-21T08:04:33;5.57;;;3.47;;
16837;SDS011;19510;54.486;9.046;2023-11-21T08:07:00;5.80;;;3.42;;
16837;SDS011;19510;54.486;9.046;2023-11-21T08:09:26;6.07;;;4.00;;
16837;SDS011;19510;54.486;9.046;2023-11-21T08:11:52;23.00;;;12.82;;
16837;SDS011;19510;54.486;9.046;2023-11-21T08:14:21;7.32;;;4.65;;
16837;SDS011;19510;54.486;9.046;2023-11-21T08:16:47;5.35;;;4.00;;
16837;SDS011;19510;54.486;9.046;2023-11-21T08:19:13;6.85;;;4.38;;
16837;SDS011;19510;54.486;9.046;2023-11-21T08:21:38;6.63;;;3.85;;
16837;SDS011;19510;54.486;9.046;2023-11-21T08:24:08;8.13;;;4.68;;
16837;SDS011;19510;54.486;9.046;2023-11-21T08:26:36;8.73;;;4.20;;
16837;SDS011;19510;54.486;9.046;2023-11-21T08:29:02;6.10;;;3.92;;
16837;SDS011;19510;54.486;9.046;2023-11-21T08:31:28;7.22;;;3.85;;
16837;SDS011;19510;54.486;9.046;2023-11-21T08:33:54;6.45;;;4.10;;
16837;SDS011;19510;54.486;9.046;2023-11-21T08:36:23;7.78;;;4.05;;
16837;SDS011;19510;54.486;9.046;2023-11-21T08:38:52;8.45;;;4.00;;
16837;SDS011;19510;54.486;9.046;2023-11-21T08:41:18;5.97;;;4.07;;
16837;SDS011;19510;54.486;9.046;2023-11-21T08:43:47;8.00;;;5.07;;
16837;SDS011;19510;54.486;9.046;2023-11-21T08:46:13;8.88;;;4.07;;
16837;SDS011;19510;54.486;9.046;2023-11-21T08:48:40;7.60;;;4.15;;
16837;SDS011;19510;54.486;9.046;2023-11-21T08:51:06;10.93;;;6.78;;
16837;SDS011;19510;54.486;9.046;2023-11-21T08:53:34;7.32;;;4.28;;
16837;SDS011;19510;54.486;9.046;2023-11-21T08:56:00;7.65;;;4.47;;
16837;SDS011;19510;54.486;9.046;2023-11-21T08:58:26;9.05;;;4.72;;
16837;SDS011;19510;54.486;9.046;2023-11-21T09:00:52;6.15;;;4.40;;
16837;SDS011;19510;54.486;9.046;2023-11-21T09:03:18;7.10;;;4.50;;
16837;SDS011;19510;54.486;9.046;2023-11-21T09:05:44;7.53;;;4.45;;
16837;SDS011;19510;54.486;9.046;2023-11-21T09:08:09;8.07;;;4.43;;
16837;SDS011;19510;54.486;9.046;2023-11-21T09:10:35;7.03;;;4.22;;
16837;SDS011;19510;54.486;9.046;2023-11-21T09:13:02;7.70;;;4.82;;
16837;SDS011;19510;54.486;9.046;2023-11-21T09:15:28;7.32;;;4.60;;
16837;SDS011;19510;54.486;9.046;2023-11-21T09:17:53;8.18;;;5.18;;
16837;SDS011;19510;54.486;9.046;2023-11-21T09:20:19;6.88;;;4.70;;
16837;SDS011;19510;54.486;9.046;2023-11-21T09:22:48;7.72;;;4.40;;
16837;SDS011;19510;54.486;9.046;2023-11-21T09:25:14;9.38;;;4.97;;
16837;SDS011;19510;54.486;9.046;2023-11-21T09:27:40;8.38;;;5.80;;
16837;SDS011;19510;54.486;9.046;2023-11-21T09:30:06;12.75;;;8.27;;
16837;SDS011;19510;54.486;9.046;2023-11-21T09:32:37;8.35;;;5.03;;
16837;SDS011;19510;54.486;9.046;2023-11-21T09:35:04;6.97;;;4.93;;
16837;SDS011;19510;54.486;9.046;2023-11-21T09:37:30;8.95;;;5.18;;
16837;SDS011;19510;54.486;9.046;2023-11-21T09:39:56;6.63;;;4.30;;
16837;SDS011;19510;54.486;9.046;2023-11-21T09:45:27;11.05;;;5.22;;
16837;SDS011;19510;54.486;9.046;2023-11-21T09:47:54;8.57;;;4.55;;
16837;SDS011;19510;54.486;9.046;2023-11-21T09:50:21;6.25;;;4.65;;
16837;SDS011;19510;54.486;9.046;2023-11-21T09:55:13;7.55;;;4.80;;
16837;SDS011;19510;54.486;9.046;2023-11-21T09:57:43;7.15;;;4.93;;
16837;SDS011;19510;54.486;9.046;2023-11-21T10:00:10;9.07;;;5.15;;
16837;SDS011;19510;54.486;9.046;2023-11-21T10:02:37;7.93;;;4.88;;
16837;SDS011;19510;54.486;9.046;2023-11-21T10:05:06;8.05;;;5.60;;
16837;SDS011;19510;54.486;9.046;2023-11-21T10:07:34;9.82;;;5.47;;
16837;SDS011;19510;54.486;9.046;2023-11-21T10:10:00;8.02;;;4.82;;
16837;SDS011;19510;54.486;9.046;2023-11-21T10:12:27;8.52;;;5.30;;
16837;SDS011;19510;54.486;9.046;2023-11-21T10:14:57;8.45;;;4.85;;
16837;SDS011;19510;54.486;9.046;2023-11-21T10:17:25;6.72;;;4.60;;
16837;SDS011;19510;54.486;9.046;2023-11-21T10:20:01;7.93;;;4.82;;
16837;SDS011;19510;54.486;9.046;2023-11-21T10:22:31;12.60;;;5.50;;
16837;SDS011;19510;54.486;9.046;2023-11-21T10:24:56;8.30;;;4.85;;
16837;SDS011;19510;54.486;9.046;2023-11-21T10:27:22;6.72;;;4.32;;
16837;SDS011;19510;54.486;9.046;2023-11-21T10:29:51;10.90;;;4.93;;
16837;SDS011;19510;54.486;9.046;2023-11-21T10:32:16;7.35;;;5.40;;
16837;SDS011;19510;54.486;9.046;2023-11-21T10:34:42;10.20;;;4.78;;
16837;SDS011;19510;54.486;9.046;2023-11-21T10:37:11;8.73;;;5.15;;
16837;SDS011;19510;54.486;9.046;2023-11-21T10:39:38;9.02;;;4.85;;
16837;SDS011;19510;54.486;9.046;2023-11-21T10:42:04;7.70;;;4.75;;
16837;SDS011;19510;54.486;9.046;2023-11-21T10:44:33;6.75;;;4.82;;
16837;SDS011;19510;54.486;9.046;2023-11-21T10:46:59;6.68;;;4.80;;
16837;SDS011;19510;54.486;9.046;2023-11-21T10:49:26;9.18;;;5.25;;
16837;SDS011;19510;54.486;9.046;2023-11-21T10:51:55;9.55;;;5.07;;
16837;SDS011;19510;54.486;9.046;2023-11-21T10:54:22;10.63;;;5.03;;
16837;SDS011;19510;54.486;9.046;2023-11-21T10:56:58;7.65;;;5.22;;
16837;SDS011;19510;54.486;9.046;2023-11-21T10:59:26;6.90;;;5.00;;
16837;SDS011;19510;54.486;9.046;2023-11-21T11:01:54;7.90;;;4.32;;
16837;SDS011;19510;54.486;9.046;2023-11-21T11:04:23;7.50;;;4.57;;
16837;SDS011;19510;54.486;9.046;2023-11-21T11:06:56;7.43;;;4.15;;
16837;SDS011;19510;54.486;9.046;2023-11-21T11:09:26;6.30;;;4.10;;
16837;SDS011;19510;54.486;9.046;2023-11-21T11:11:52;6.55;;;4.20;;
16837;SDS011;19510;54.486;9.046;2023-11-21T11:14:19;6.10;;;4.10;;
16837;SDS011;19510;54.486;9.046;2023-11-21T11:16:52;6.32;;;3.90;;
16837;SDS011;19510;54.486;9.046;2023-11-21T11:19:20;7.15;;;3.33;;
16837;SDS011;19510;54.486;9.046;2023-11-21T11:32:36;5.50;;;3.72;;
16837;SDS011;19510;54.486;9.046;2023-11-21T11:35:26;5.25;;;3.50;;
16837;SDS011;19510;54.486;9.046;2023-11-21T11:38:05;4.78;;;3.45;;
16837;SDS011;19510;54.486;9.046;2023-11-21T11:40:44;5.57;;;2.83;;
16837;SDS011;19510;54.486;9.046;2023-11-21T11:43:11;5.63;;;3.25;;
16837;SDS011;19510;54.486;9.046;2023-11-21T11:45:37;6.50;;;3.70;;
16837;SDS011;19510;54.486;9.046;2023-11-21T11:48:07;8.20;;;3.63;;
16837;SDS011;19510;54.486;9.046;2023-11-21T11:50:41;4.95;;;3.72;;
16837;SDS011;19510;54.486;9.046;2023-11-21T11:53:25;6.00;;;3.58;;
16837;SDS011;19510;54.486;9.046;2023-11-21T11:55:57;6.40;;;3.38;;
16837;SDS011;19510;54.486;9.046;2023-11-21T11:58:42;4.38;;;3.38;;
16837;SDS011;19510;54.486;9.046;2023-11-21T12:01:08;4.88;;;3.28;;
16837;SDS011;19510;54.486;9.046;2023-11-21T12:03:37;6.20;;;3.90;;
16837;SDS011;19510;54.486;9.046;2023-11-21T12:06:04;5.03;;;3.42;;
16837;SDS011;19510;54.486;9.046;2023-11-21T12:08:31;6.32;;;4.07;;
16837;SDS011;19510;54.486;9.046;2023-11-21T12:10:58;5.15;;;3.60;;
16837;SDS011;19510;54.486;9.046;2023-11-21T12:13:23;4.60;;;3.53;;
16837;SDS011;19510;54.486;9.046;2023-11-21T12:15:49;6.82;;;3.92;;
16837;SDS011;19510;54.486;9.046;2023-11-21T12:18:15;6.10;;;3.40;;
16837;SDS011;19510;54.486;9.046;2023-11-21T12:20:41;6.30;;;4.07;;
16837;SDS011;19510;54.486;9.046;2023-11-21T12:23:07;6.35;;;3.90;;
16837;SDS011;19510;54.486;9.046;2023-11-21T12:25:36;4.65;;;3.47;;
16837;SDS011;19510;54.486;9.046;2023-11-21T12:28:04;7.63;;;4.55;;
16837;SDS011;19510;54.486;9.046;2023-11-21T12:30:31;6.95;;;4.20;;
16837;SDS011;19510;54.486;9.046;2023-11-21T12:33:01;6.78;;;3.90;;
16837;SDS011;19510;54.486;9.046;2023-11-21T12:35:27;6.50;;;3.75;;
16837;SDS011;19510;54.486;9.046;2023-11-21T12:37:55;4.90;;;3.45;;
16837;SDS011;19510;54.486;9.046;2023-11-21T12:40:24;4.95;;;3.47;;
16837;SDS011;19510;54.486;9.046;2023-11-21T12:42:56;5.03;;;3.28;;
16837;SDS011;19510;54.486;9.046;2023-11-21T12:45:26;9.70;;;3.65;;
16837;SDS011;19510;54.486;9.046;2023-11-21T12:50:33;6.22;;;3.55;;
16837;SDS011;19510;54.486;9.046;2023-11-21T12:53:08;5.88;;;3.78;;
16837;SDS011;19510;54.486;9.046;2023-11-21T12:55:37;5.30;;;3.35;;
16837;SDS011;19510;54.486;9.046;2023-11-21T12:58:03;6.25;;;3.80;;
16837;SDS011;19510;54.486;9.046;2023-11-21T13:00:38;5.25;;;3.53;;
16837;SDS011;19510;54.486;9.046;2023-11-21T13:03:07;4.63;;;3.40;;
16837;SDS011;19510;54.486;9.046;2023-11-21T13:05:38;5.70;;;3.35;;
16837;SDS011;19510;54.486;9.046;2023-11-21T13:08:07;7.93;;;3.70;;
16837;SDS011;19510;54.486;9.046;2023-11-21T13:10:35;8.13;;;3.55;;
16837;SDS011;19510;54.486;9.046;2023-11-21T13:13:11;5.20;;;3.40;;
16837;SDS011;19510;54.486;9.046;2023-11-21T13:15:47;5.57;;;3.50;;
16837;SDS011;19510;54.486;9.046;2023-11-21T13:18:13;5.82;;;3.72;;
16837;SDS011;19510;54.486;9.046;2023-11-21T13:20:39;7.10;;;3.50;;
16837;SDS011;19510;54.486;9.046;2023-11-21T13:23:09;8.15;;;3.55;;
16837;SDS011;19510;54.486;9.046;2023-11-21T13:25:41;5.43;;;3.60;;
16837;SDS011;19510;54.486;9.046;2023-11-21T13:28:07;7.22;;;3.50;;
16837;SDS011;19510;54.486;9.046;2023-11-21T13:30:36;5.90;;;3.90;;
16837;SDS011;19510;54.486;9.046;2023-11-21T13:33:06;7.18;;;4.20;;
16837;SDS011;19510;54.486;9.046;2023-11-21T13:35:34;5.00;;;3.63;;
16837;SDS011;19510;54.486;9.046;2023-11-21T13:38:21;7.50;;;3.40;;
16837;SDS011;19510;54.486;9.046;2023-11-21T13:40:48;5.03;;;3.67;;
16837;SDS011;19510;54.486;9.046;2023-11-21T13:43:18;6.40;;;4.28;;
16837;SDS011;19510;54.486;9.046;2023-11-21T13:45:46;9.13;;;4.88;;
16837;SDS011;19510;54.486;9.046;2023-11-21T13:48:16;5.60;;;3.80;;
16837;SDS011;19510;54.486;9.046;2023-11-21T13:50:50;7.80;;;3.42;;
16837;SDS011;19510;54.486;9.046;2023-11-21T13:53:35;4.00;;;3.00;;
16837;SDS011;19510;54.486;9.046;2023-11-21T13:56:03;6.78;;;3.80;;
16837;SDS011;19510;54.486;9.046;2023-11-21T13:58:30;6.88;;;3.80;;
16837;SDS011;19510;54.486;9.046;2023-11-21T14:01:14;7.13;;;3.67;;
16837;SDS011;19510;54.486;9.046;2023-11-21T14:03:48;7.55;;;3.65;;
16837;SDS011;19510;54.486;9.046;2023-11-21T14:06:21;5.97;;;3.50;;
16837;SDS011;19510;54.486;9.046;2023-11-21T14:08:52;5.30;;;3.60;;
16837;SDS011;19510;54.486;9.046;2023-11-21T14:11:21;4.65;;;3.15;;
16837;SDS011;19510;54.486;9.046;2023-11-21T14:13:47;5.25;;;3.10;;
16837;SDS011;19510;54.486;9.046;2023-11-21T14:16:15;6.85;;;3.15;;
16837;SDS011;19510;54.486;9.046;2023-11-21T14:18:42;4.43;;;3.15;;
16837;SDS011;19510;54.486;9.046;2023-11-21T14:21:20;4.00;;;3.00;;
16837;SDS011;19510;54.486;9.046;2023-11-21T14:23:46;4.40;;;3.22;;
16837;SDS011;19510;54.486;9.046;2023-11-21T14:26:13;4.68;;;3.03;;
16837;SDS011;19510;54.486;9.046;2023-11-21T14:28:41;4.85;;;2.65;;
16837;SDS011;19510;54.486;9.046;2023-11-21T14:31:07;6.95;;;3.90;;
16837;SDS011;19510;54.486;9.046;2023-11-21T14:33:40;6.40;;;3.67;;
16837;SDS011;19510;54.486;9.046;2023-11-21T14:36:06;6.18;;;3.10;;
16837;SDS011;19510;54.486;9.046;2023-11-21T14:38:36;7.00;;;3.17;;
16837;SDS011;19510;54.486;9.046;2023-11-21T14:41:05;7.30;;;3.70;;
16837;SDS011;19510;54.486;9.046;2023-11-21T14:43:33;4.25;;;3.30;;
16837;SDS011;19510;54.486;9.046;2023-11-21T14:46:03;6.18;;;3.55;;
16837;SDS011;19510;54.486;9.046;2023-11-21T14:48:33;5.57;;;3.15;;
16837;SDS011;19510;54.486;9.046;2023-11-21T14:51:11;6.55;;;2.92;;
16837;SDS011;19510;54.486;9.046;2023-11-21T14:53:58;5.07;;;3.75;;
16837;SDS011;19510;54.486;9.046;2023-11-21T14:56:31;5.30;;;3.50;;
16837;SDS011;19510;54.486;9.046;2023-11-21T14:58:59;4.57;;;3.28;;
16837;SDS011;19510;54.486;9.046;2023-11-21T15:01:32;5.18;;;3.25;;
16837;SDS011;19510;54.486;9.046;2023-11-21T15:04:19;6.35;;;3.53;;
16837;SDS011;19510;54.486;9.046;2023-11-21T15:07:07;3.50;;;3.20;;
16837;SDS011;19510;54.486;9.046;2023-11-21T15:09:34;6.88;;;3.65;;